Weather at Hatzerim Air Base

Public forecast

Using degrees Celsius for public forecast. Weather courtesy of forecast.io.

Closest aviation weather report (METAR) to Hatzerim Air Base

Closest report is El Arish International Airport, 43.4 nm (80.4 km) WSW.

2024/05/20 04:00 (retrieved 1 hour ago)

HEAR 200400Z 15009KT CAVOK 25/09 Q1008 NOSIG

Closest aviation forecast (TAF) to Hatzerim Air Base

Forecast is more than 12 hours old.

Closest forecast is Beirut Rafic Hariri International Airport, 160.9 nm (297.9 km) NNE.

2024/05/19 12:01 (retrieved 17 hours ago)

TAF OLBA 191000Z 1912/2018 28010KT 8000 NSC BECMG 1918/1921 14005KT BECMG 2009/2012 23010KT